Terminal Aerodrome Forecast
Issued by NWS

Home | Current Version | Previous Version | Text Only | Print | Product List | Glossary On
Versions: 1 2 3 4 5 6 7 8 9 10 11 12 13 14 15 16
000
FTUS41 KGYX 011720
TAFAUG
TAF
KAUG 011720Z 0118/0218 17007KT P6SM SCT060 BKN080
      TEMPO 0118/0121 -SHRA BKN050 OVC080
     FM012100 16004KT P6SM -SHRA BKN045 OVC060
     FM020300 12004KT P6SM SCT025 OVC040
     FM020700 VRB03KT 5SM -DZ BR BKN012 OVC025
     FM021200 07006KT 2SM -SHRA OVC004=

USA.gov is the U.S. government's official web portal to all federal, state and local government web resources and services.